sensor_id;sensor_type;location;lat;lon;timestamp;pressure;altitude;pressure_sealevel;temperature;humidity
51928;BME280;37953;52.806;18.270;2023-03-04T00:02:18;100398.06;;;2.73;100.00
51928;BME280;37953;52.806;18.270;2023-03-04T00:04:44;100392.09;;;2.74;100.00
51928;BME280;37953;52.806;18.270;2023-03-04T00:07:10;100392.16;;;2.76;100.00
51928;BME280;37953;52.806;18.270;2023-03-04T00:09:44;100385.31;;;2.76;100.00
51928;BME280;37953;52.806;18.270;2023-03-04T00:12:11;100379.38;;;2.77;100.00
51928;BME280;37953;52.806;18.270;2023-03-04T00:14:37;100375.91;;;2.77;100.00
51928;BME280;37953;52.806;18.270;2023-03-04T00:17:17;100371.69;;;2.77;100.00
51928;BME280;37953;52.806;18.270;2023-03-04T00:19:43;100361.44;;;2.79;100.00
51928;BME280;37953;52.806;18.270;2023-03-04T00:22:09;100360.66;;;2.80;100.00
51928;BME280;37953;52.806;18.270;2023-03-04T00:24:35;100355.50;;;2.80;100.00
51928;BME280;37953;52.806;18.270;2023-03-04T00:27:00;100343.63;;;2.82;100.00
51928;BME280;37953;52.806;18.270;2023-03-04T00:29:26;100336.78;;;2.82;100.00
51928;BME280;37953;52.806;18.270;2023-03-04T00:31:52;100336.84;;;2.84;100.00
51928;BME280;37953;52.806;18.270;2023-03-04T00:34:18;100333.38;;;2.83;100.00
51928;BME280;37953;52.806;18.270;2023-03-04T00:36:44;100324.88;;;2.84;100.00
51928;BME280;37953;52.806;18.270;2023-03-04T00:39:11;100321.44;;;2.84;100.00
51928;BME280;37953;52.806;18.270;2023-03-04T00:41:37;100306.06;;;2.85;100.00
51928;BME280;37953;52.806;18.270;2023-03-04T00:44:03;100304.41;;;2.86;100.00
51928;BME280;37953;52.806;18.270;2023-03-04T00:46:29;100287.31;;;2.87;100.00
51928;BME280;37953;52.806;18.270;2023-03-04T00:48:55;100284.81;;;2.88;100.00
51928;BME280;37953;52.806;18.270;2023-03-04T00:51:20;100263.44;;;2.89;100.00
51928;BME280;37953;52.806;18.270;2023-03-04T00:53:48;100270.31;;;2.90;100.00
51928;BME280;37953;52.806;18.270;2023-03-04T00:56:16;100260.09;;;2.92;100.00
51928;BME280;37953;52.806;18.270;2023-03-04T00:58:42;100254.16;;;2.93;100.00
51928;BME280;37953;52.806;18.270;2023-03-04T01:01:08;100243.03;;;2.92;100.00
51928;BME280;37953;52.806;18.270;2023-03-04T01:03:34;100230.19;;;2.92;100.00
51928;BME280;37953;52.806;18.270;2023-03-04T01:06:00;100216.47;;;2.92;100.00
51928;BME280;37953;52.806;18.270;2023-03-04T01:08:26;100218.28;;;2.94;100.00
51928;BME280;37953;52.806;18.270;2023-03-04T01:10:51;100200.25;;;2.93;100.00
51928;BME280;37953;52.806;18.270;2023-03-04T01:13:17;100188.28;;;2.93;100.00
51928;BME280;37953;52.806;18.270;2023-03-04T01:15:43;100178.03;;;2.93;100.00
51928;BME280;37953;52.806;18.270;2023-03-04T01:18:09;100174.59;;;2.93;100.00
51928;BME280;37953;52.806;18.270;2023-03-04T01:20:38;100162.63;;;2.93;100.00
51928;BME280;37953;52.806;18.270;2023-03-04T01:23:04;100148.94;;;2.93;100.00
51928;BME280;37953;52.806;18.270;2023-03-04T01:25:30;100150.66;;;2.92;100.00
51928;BME280;37953;52.806;18.270;2023-03-04T01:27:56;100143.81;;;2.93;100.00
51928;BME280;37953;52.806;18.270;2023-03-04T01:30:21;100148.09;;;2.92;100.00
51928;BME280;37953;52.806;18.270;2023-03-04T01:32:47;100153.22;;;2.92;100.00
51928;BME280;37953;52.806;18.270;2023-03-04T01:35:13;100173.75;;;2.94;100.00
51928;BME280;37953;52.806;18.270;2023-03-04T01:37:39;100172.09;;;2.94;100.00
51928;BME280;37953;52.806;18.270;2023-03-04T01:40:05;100171.25;;;2.95;100.00
51928;BME280;37953;52.806;18.270;2023-03-04T01:42:32;100176.38;;;2.95;100.00
51928;BME280;37953;52.806;18.270;2023-03-04T01:44:58;100177.25;;;2.96;100.00
51928;BME280;37953;52.806;18.270;2023-03-04T01:47:26;100172.16;;;2.97;100.00
51928;BME280;37953;52.806;18.270;2023-03-04T01:49:53;100190.13;;;2.97;100.00
51928;BME280;37953;52.806;18.270;2023-03-04T01:52:19;100184.16;;;2.98;100.00
51928;BME280;37953;52.806;18.270;2023-03-04T01:54:45;100187.63;;;2.99;100.00
51928;BME280;37953;52.806;18.270;2023-03-04T01:57:20;100185.03;;;2.99;100.00
51928;BME280;37953;52.806;18.270;2023-03-04T02:02:35;100178.25;;;3.01;100.00
51928;BME280;37953;52.806;18.270;2023-03-04T02:05:01;100183.41;;;3.01;100.00
51928;BME280;37953;52.806;18.270;2023-03-04T02:07:27;100185.97;;;3.01;100.00
51928;BME280;37953;52.806;18.270;2023-03-04T02:09:53;100173.13;;;3.01;100.00
51928;BME280;37953;52.806;18.270;2023-03-04T02:12:20;100188.53;;;3.01;100.00
51928;BME280;37953;52.806;18.270;2023-03-04T02:14:46;100183.41;;;3.01;100.00
51928;BME280;37953;52.806;18.270;2023-03-04T02:17:12;100173.94;;;3.00;100.00
51928;BME280;37953;52.806;18.270;2023-03-04T02:19:44;100167.09;;;2.99;100.00
51928;BME280;37953;52.806;18.270;2023-03-04T02:22:27;100168.75;;;2.98;100.00
51928;BME280;37953;52.806;18.270;2023-03-04T02:24:56;100166.25;;;3.00;100.00
51928;BME280;37953;52.806;18.270;2023-03-04T02:27:25;100171.31;;;2.98;100.00
51928;BME280;37953;52.806;18.270;2023-03-04T02:29:51;100180.84;;;3.01;100.00
51928;BME280;37953;52.806;18.270;2023-03-04T02:32:17;100164.53;;;3.00;100.00
51928;BME280;37953;52.806;18.270;2023-03-04T02:34:49;100168.88;;;3.01;100.00
51928;BME280;37953;52.806;18.270;2023-03-04T02:37:16;100163.72;;;3.01;100.00
51928;BME280;37953;52.806;18.270;2023-03-04T02:39:43;100160.31;;;3.01;100.00
51928;BME280;37953;52.806;18.270;2023-03-04T02:42:10;100151.75;;;3.02;100.00
51928;BME280;37953;52.806;18.270;2023-03-04T02:44:37;100150.06;;;3.02;100.00
51928;BME280;37953;52.806;18.270;2023-03-04T02:47:04;100166.34;;;3.03;100.00
51928;BME280;37953;52.806;18.270;2023-03-04T02:49:30;100167.22;;;3.03;100.00
51928;BME280;37953;52.806;18.270;2023-03-04T02:52:01;100156.09;;;3.04;100.00
51928;BME280;37953;52.806;18.270;2023-03-04T02:54:28;100155.25;;;3.04;100.00
51928;BME280;37953;52.806;18.270;2023-03-04T02:56:59;100146.69;;;3.03;100.00
51928;BME280;37953;52.806;18.270;2023-03-04T02:59:25;100147.53;;;3.04;100.00
51928;BME280;37953;52.806;18.270;2023-03-04T03:01:51;100151.88;;;3.05;100.00
51928;BME280;37953;52.806;18.270;2023-03-04T03:04:17;100149.31;;;3.05;100.00
51928;BME280;37953;52.806;18.270;2023-03-04T03:06:49;100144.16;;;3.05;100.00
51928;BME280;37953;52.806;18.270;2023-03-04T03:09:15;100146.72;;;3.05;100.00
51928;BME280;37953;52.806;18.270;2023-03-04T03:11:41;100142.47;;;3.05;100.00
51928;BME280;37953;52.806;18.270;2023-03-04T03:14:07;100143.31;;;3.06;100.00
51928;BME280;37953;52.806;18.270;2023-03-04T03:16:33;100146.72;;;3.05;100.00
51928;BME280;37953;52.806;18.270;2023-03-04T03:18:59;100140.75;;;3.06;100.00
51928;BME280;37953;52.806;18.270;2023-03-04T03:21:28;100139.94;;;3.07;100.00
51928;BME280;37953;52.806;18.270;2023-03-04T03:23:54;100132.25;;;3.07;100.00
51928;BME280;37953;52.806;18.270;2023-03-04T03:26:20;100132.25;;;3.07;100.00
51928;BME280;37953;52.806;18.270;2023-03-04T03:28:46;100133.09;;;3.08;100.00
51928;BME280;37953;52.806;18.270;2023-03-04T03:31:12;100132.31;;;3.10;100.00
51928;BME280;37953;52.806;18.270;2023-03-04T03:33:38;100131.47;;;3.10;100.00
51928;BME280;37953;52.806;18.270;2023-03-04T03:36:04;100127.19;;;3.10;100.00
51928;BME280;37953;52.806;18.270;2023-03-04T03:38:30;100127.19;;;3.10;100.00
51928;BME280;37953;52.806;18.270;2023-03-04T03:40:56;100128.03;;;3.11;100.00
51928;BME280;37953;52.806;18.270;2023-03-04T03:43:21;100132.31;;;3.10;100.00
51928;BME280;37953;52.806;18.270;2023-03-04T03:45:47;100122.91;;;3.11;100.00
51928;BME280;37953;52.806;18.270;2023-03-04T03:48:13;100135.75;;;3.11;100.00
51928;BME280;37953;52.806;18.270;2023-03-04T03:50:39;100126.38;;;3.11;100.00
51928;BME280;37953;52.806;18.270;2023-03-04T03:53:05;100125.47;;;3.11;100.00
51928;BME280;37953;52.806;18.270;2023-03-04T03:55:31;100117.78;;;3.11;100.00
51928;BME280;37953;52.806;18.270;2023-03-04T03:57:57;100120.34;;;3.11;100.00
51928;BME280;37953;52.806;18.270;2023-03-04T04:00:23;100122.06;;;3.10;100.00
51928;BME280;37953;52.806;18.270;2023-03-04T04:02:49;100123.81;;;3.11;100.00
51928;BME280;37953;52.806;18.270;2023-03-04T04:05:15;100116.91;;;3.10;100.00
51928;BME280;37953;52.806;18.270;2023-03-04T04:07:41;100114.34;;;3.10;100.00
51928;BME280;37953;52.806;18.270;2023-03-04T04:10:07;100115.22;;;3.11;100.00
51928;BME280;37953;52.806;18.270;2023-03-04T04:12:33;100114.41;;;3.12;100.00
51928;BME280;37953;52.806;18.270;2023-03-04T04:14:59;100115.25;;;3.12;100.00
51928;BME280;37953;52.806;18.270;2023-03-04T04:17:25;100110.13;;;3.12;100.00
51928;BME280;37953;52.806;18.270;2023-03-04T04:19:50;100122.13;;;3.13;100.00
51928;BME280;37953;52.806;18.270;2023-03-04T04:22:17;100124.69;;;3.13;100.00
51928;BME280;37953;52.806;18.270;2023-03-04T04:24:45;100120.41;;;3.12;100.00
51928;BME280;37953;52.806;18.270;2023-03-04T04:27:11;100123.00;;;3.14;100.00
51928;BME280;37953;52.806;18.270;2023-03-04T04:29:37;100122.13;;;3.13;100.00
51928;BME280;37953;52.806;18.270;2023-03-04T04:32:03;100112.69;;;3.12;100.00
51928;BME280;37953;52.806;18.270;2023-03-04T04:34:29;100122.13;;;3.13;100.00
51928;BME280;37953;52.806;18.270;2023-03-04T04:36:54;100119.59;;;3.15;100.00
51928;BME280;37953;52.806;18.270;2023-03-04T04:39:20;100120.47;;;3.15;100.00
51928;BME280;37953;52.806;18.270;2023-03-04T04:41:47;100110.19;;;3.15;100.00
51928;BME280;37953;52.806;18.270;2023-03-04T04:44:13;100123.94;;;3.16;100.00
51928;BME280;37953;52.806;18.270;2023-03-04T04:46:39;100119.66;;;3.16;100.00
51928;BME280;37953;52.806;18.270;2023-03-04T04:49:06;100117.09;;;3.16;100.00
51928;BME280;37953;52.806;18.270;2023-03-04T04:51:32;100110.19;;;3.15;100.00
51928;BME280;37953;52.806;18.270;2023-03-04T04:54:01;100101.69;;;3.16;100.00
51928;BME280;37953;52.806;18.270;2023-03-04T04:56:27;100104.31;;;3.18;100.00
51928;BME280;37953;52.806;18.270;2023-03-04T04:58:55;100108.53;;;3.17;100.00
51928;BME280;37953;52.806;18.270;2023-03-04T05:01:21;100092.28;;;3.17;100.00
51928;BME280;37953;52.806;18.270;2023-03-04T05:03:49;100088.84;;;3.16;100.00
51928;BME280;37953;52.806;18.270;2023-03-04T05:06:17;100093.16;;;3.17;100.00
51928;BME280;37953;52.806;18.270;2023-03-04T05:08:43;100094.03;;;3.18;100.00
51928;BME280;37953;52.806;18.270;2023-03-04T05:11:09;100087.19;;;3.18;100.00
51928;BME280;37953;52.806;18.270;2023-03-04T05:13:37;100084.69;;;3.20;100.00
51928;BME280;37953;52.806;18.270;2023-03-04T05:16:03;100077.78;;;3.19;100.00
51928;BME280;37953;52.806;18.270;2023-03-04T05:18:29;100077.84;;;3.20;100.00
51928;BME280;37953;52.806;18.270;2023-03-04T05:20:58;100081.28;;;3.21;100.00
51928;BME280;37953;52.806;18.270;2023-03-04T05:23:25;100071.88;;;3.21;100.00
51928;BME280;37953;52.806;18.270;2023-03-04T05:25:52;100079.56;;;3.21;100.00
51928;BME280;37953;52.806;18.270;2023-03-04T05:28:18;100080.47;;;3.22;100.00
51928;BME280;37953;52.806;18.270;2023-03-04T05:30:44;100072.75;;;3.22;100.00
51928;BME280;37953;52.806;18.270;2023-03-04T05:33:11;100067.63;;;3.23;100.00
51928;BME280;37953;52.806;18.270;2023-03-04T05:35:38;100071.09;;;3.24;100.00
51928;BME280;37953;52.806;18.270;2023-03-04T05:38:05;100067.63;;;3.23;100.00
51928;BME280;37953;52.806;18.270;2023-03-04T05:40:31;100069.41;;;3.24;100.00
51928;BME280;37953;52.806;18.270;2023-03-04T05:42:57;100065.13;;;3.25;100.00
51928;BME280;37953;52.806;18.270;2023-03-04T05:45:23;100072.81;;;3.25;100.00
51928;BME280;37953;52.806;18.270;2023-03-04T05:47:49;100073.69;;;3.25;100.00
51928;BME280;37953;52.806;18.270;2023-03-04T05:50:15;100075.44;;;3.26;100.00
51928;BME280;37953;52.806;18.270;2023-03-04T05:52:40;100065.97;;;3.25;100.00
51928;BME280;37953;52.806;18.270;2023-03-04T05:55:06;100074.56;;;3.26;100.00
51928;BME280;37953;52.806;18.270;2023-03-04T05:57:32;100066.03;;;3.27;100.00
51928;BME280;37953;52.806;18.270;2023-03-04T05:59:58;100069.47;;;3.28;100.00
51928;BME280;37953;52.806;18.270;2023-03-04T06:02:24;100060.91;;;3.27;100.00
51928;BME280;37953;52.806;18.270;2023-03-04T06:04:50;100074.59;;;3.28;100.00
51928;BME280;37953;52.806;18.270;2023-03-04T06:07:16;100062.66;;;3.30;100.00
51928;BME280;37953;52.806;18.270;2023-03-04T06:09:41;100072.13;;;3.31;100.00
51928;BME280;37953;52.806;18.270;2023-03-04T06:12:10;100063.56;;;3.32;100.00
51928;BME280;37953;52.806;18.270;2023-03-04T06:14:36;100060.19;;;3.33;100.00
51928;BME280;37953;52.806;18.270;2023-03-04T06:17:05;100068.75;;;3.33;100.00
51928;BME280;37953;52.806;18.270;2023-03-04T06:19:30;100075.63;;;3.34;100.00
51928;BME280;37953;52.806;18.270;2023-03-04T06:21:56;100076.50;;;3.35;100.00
51928;BME280;37953;52.806;18.270;2023-03-04T06:24:22;100067.97;;;3.36;100.00
51928;BME280;37953;52.806;18.270;2023-03-04T06:26:49;100067.97;;;3.36;100.00
51928;BME280;37953;52.806;18.270;2023-03-04T06:29:15;100068.81;;;3.36;100.00
51928;BME280;37953;52.806;18.270;2023-03-04T06:31:41;100070.56;;;3.37;100.00
51928;BME280;37953;52.806;18.270;2023-03-04T06:34:07;100071.47;;;3.39;100.00
51928;BME280;37953;52.806;18.270;2023-03-04T06:36:33;100074.91;;;3.40;100.00
51928;BME280;37953;52.806;18.270;2023-03-04T06:39:01;100067.22;;;3.40;100.00
51928;BME280;37953;52.806;18.270;2023-03-04T06:41:33;100074.91;;;3.40;100.00
51928;BME280;37953;52.806;18.270;2023-03-04T06:43:59;100069.78;;;3.40;100.00
51928;BME280;37953;52.806;18.270;2023-03-04T06:46:25;100078.34;;;3.40;100.00
51928;BME280;37953;52.806;18.270;2023-03-04T06:48:51;100065.50;;;3.40;100.00
51928;BME280;37953;52.806;18.270;2023-03-04T06:51:17;100063.81;;;3.41;100.00
51928;BME280;37953;52.806;18.270;2023-03-04T06:53:44;100062.97;;;3.42;100.00
51928;BME280;37953;52.806;18.270;2023-03-04T06:56:10;100075.00;;;3.43;100.00
51928;BME280;37953;52.806;18.270;2023-03-04T06:58:37;100066.47;;;3.44;100.00
51928;BME280;37953;52.806;18.270;2023-03-04T07:01:10;100068.19;;;3.45;100.00
51928;BME280;37953;52.806;18.270;2023-03-04T07:03:39;100077.63;;;3.46;100.00
51928;BME280;37953;52.806;18.270;2023-03-04T07:06:05;100074.22;;;3.47;100.00
51928;BME280;37953;52.806;18.270;2023-03-04T07:08:31;100083.69;;;3.48;100.00
51928;BME280;37953;52.806;18.270;2023-03-04T07:10:57;100076.03;;;3.50;100.00
51928;BME280;37953;52.806;18.270;2023-03-04T07:13:23;100070.91;;;3.51;100.00
51928;BME280;37953;52.806;18.270;2023-03-04T07:15:49;100070.09;;;3.52;100.00
51928;BME280;37953;52.806;18.270;2023-03-04T07:18:15;100066.66;;;3.53;100.00
51928;BME280;37953;52.806;18.270;2023-03-04T07:20:40;100065.00;;;3.54;100.00
51928;BME280;37953;52.806;18.270;2023-03-04T07:23:06;100063.28;;;3.54;100.00
51928;BME280;37953;52.806;18.270;2023-03-04T07:25:32;100071.03;;;3.56;100.00
51928;BME280;37953;52.806;18.270;2023-03-04T07:27:58;100071.91;;;3.56;100.00
51928;BME280;37953;52.806;18.270;2023-03-04T07:30:24;100061.69;;;3.58;100.00
51928;BME280;37953;52.806;18.270;2023-03-04T07:32:49;100058.25;;;3.59;100.00
51928;BME280;37953;52.806;18.270;2023-03-04T07:35:15;100065.16;;;3.61;100.00
51928;BME280;37953;52.806;18.270;2023-03-04T07:37:42;100065.16;;;3.61;100.00
51928;BME280;37953;52.806;18.270;2023-03-04T07:40:08;100066.06;;;3.63;100.00
51928;BME280;37953;52.806;18.270;2023-03-04T07:42:36;100056.66;;;3.64;100.00
51928;BME280;37953;52.806;18.270;2023-03-04T07:45:03;100060.97;;;3.65;100.00
51928;BME280;37953;52.806;18.270;2023-03-04T07:47:29;100060.13;;;3.66;100.00
51928;BME280;37953;52.806;18.270;2023-03-04T07:50:02;100048.19;;;3.66;100.00
51928;BME280;37953;52.806;18.270;2023-03-04T07:52:28;100064.50;;;3.69;100.00
51928;BME280;37953;52.806;18.270;2023-03-04T07:54:54;100060.19;;;3.67;100.00
51928;BME280;37953;52.806;18.270;2023-03-04T07:57:19;100053.38;;;3.70;100.00
51928;BME280;37953;52.806;18.270;2023-03-04T07:59:45;100051.72;;;3.72;100.00
51928;BME280;37953;52.806;18.270;2023-03-04T08:02:11;100054.28;;;3.72;100.00
51928;BME280;37953;52.806;18.270;2023-03-04T08:04:37;100043.19;;;3.73;100.00
51928;BME280;37953;52.806;18.270;2023-03-04T08:07:03;100046.69;;;3.76;100.00
51928;BME280;37953;52.806;18.270;2023-03-04T08:09:29;100041.59;;;3.78;100.00
51928;BME280;37953;52.806;18.270;2023-03-04T08:11:55;100038.22;;;3.80;100.00
51928;BME280;37953;52.806;18.270;2023-03-04T08:14:23;100027.19;;;3.84;100.00
51928;BME280;37953;52.806;18.270;2023-03-04T08:16:48;100022.97;;;3.88;100.00
51928;BME280;37953;52.806;18.270;2023-03-04T08:19:14;100016.22;;;3.92;100.00
51928;BME280;37953;52.806;18.270;2023-03-04T08:21:40;100017.97;;;3.94;100.00
51928;BME280;37953;52.806;18.270;2023-03-04T08:24:06;100009.50;;;3.98;100.00
51928;BME280;37953;52.806;18.270;2023-03-04T08:26:39;100009.56;;;4.01;100.00
51928;BME280;37953;52.806;18.270;2023-03-04T08:29:07;100014.78;;;4.04;100.00
51928;BME280;37953;52.806;18.270;2023-03-04T08:31:33;100019.94;;;4.06;100.00
51928;BME280;37953;52.806;18.270;2023-03-04T08:34:05;100013.13;;;4.08;100.00
51928;BME280;37953;52.806;18.270;2023-03-04T08:36:33;100020.03;;;4.11;100.00
51928;BME280;37953;52.806;18.270;2023-03-04T08:38:59;100016.63;;;4.12;100.00
51928;BME280;37953;52.806;18.270;2023-03-04T08:41:24;100007.25;;;4.14;100.00
51928;BME280;37953;52.806;18.270;2023-03-04T08:43:52;100012.44;;;4.15;100.00
51928;BME280;37953;52.806;18.270;2023-03-04T08:46:18;100004.75;;;4.17;100.00
51928;BME280;37953;52.806;18.270;2023-03-04T08:48:43;100003.91;;;4.18;100.00
51928;BME280;37953;52.806;18.270;2023-03-04T08:51:11;100007.34;;;4.18;100.00
51928;BME280;37953;52.806;18.270;2023-03-04T08:53:39;100001.41;;;4.21;100.00
51928;BME280;37953;52.806;18.270;2023-03-04T08:56:05;100010.88;;;4.22;100.00
51928;BME280;37953;52.806;18.270;2023-03-04T08:58:32;100008.28;;;4.22;100.00
51928;BME280;37953;52.806;18.270;2023-03-04T09:00:58;99997.16;;;4.23;100.00
51928;BME280;37953;52.806;18.270;2023-03-04T09:03:25;100000.59;;;4.22;100.00
51928;BME280;37953;52.806;18.270;2023-03-04T09:05:51;99997.16;;;4.23;100.00
51928;BME280;37953;52.806;18.270;2023-03-04T09:08:17;100000.63;;;4.23;100.00
51928;BME280;37953;52.806;18.270;2023-03-04T09:10:43;99996.34;;;4.24;100.00
51928;BME280;37953;52.806;18.270;2023-03-04T09:13:09;99991.25;;;4.25;100.00
51928;BME280;37953;52.806;18.270;2023-03-04T09:15:45;99992.09;;;4.26;100.00
51928;BME280;37953;52.806;18.270;2023-03-04T09:18:11;99987.84;;;4.28;100.00
51928;BME280;37953;52.806;18.270;2023-03-04T09:20:37;100003.28;;;4.29;100.00
51928;BME280;37953;52.806;18.270;2023-03-04T09:23:03;99990.47;;;4.31;100.00
51928;BME280;37953;52.806;18.270;2023-03-04T09:25:29;99987.91;;;4.31;100.00
51928;BME280;37953;52.806;18.270;2023-03-04T09:27:55;99981.94;;;4.32;100.00
51928;BME280;37953;52.806;18.270;2023-03-04T09:30:21;99980.28;;;4.34;100.00
51928;BME280;37953;52.806;18.270;2023-03-04T09:32:47;99981.16;;;4.36;100.00
51928;BME280;37953;52.806;18.270;2023-03-04T09:35:13;99981.16;;;4.36;100.00
51928;BME280;37953;52.806;18.270;2023-03-04T09:37:39;99975.16;;;4.37;100.00
51928;BME280;37953;52.806;18.270;2023-03-04T09:40:05;99968.31;;;4.38;100.00
51928;BME280;37953;52.806;18.270;2023-03-04T09:42:36;99987.22;;;4.40;100.00
51928;BME280;37953;52.806;18.270;2023-03-04T09:45:03;99977.81;;;4.40;100.00
51928;BME280;37953;52.806;18.270;2023-03-04T09:47:33;99974.41;;;4.41;100.00
51928;BME280;37953;52.806;18.270;2023-03-04T09:50:00;99976.16;;;4.42;100.00
51928;BME280;37953;52.806;18.270;2023-03-04T09:55:17;99981.28;;;4.44;100.00
51928;BME280;37953;52.806;18.270;2023-03-04T10:00:32;99965.88;;;4.44;100.00
51928;BME280;37953;52.806;18.270;2023-03-04T10:03:09;99963.34;;;4.45;100.00
51928;BME280;37953;52.806;18.270;2023-03-04T10:10:43;99961.66;;;4.47;100.00
51928;BME280;37953;52.806;18.270;2023-03-04T10:13:13;99954.81;;;4.48;100.00
51928;BME280;37953;52.806;18.270;2023-03-04T10:15:42;99963.38;;;4.48;100.00
51928;BME280;37953;52.806;18.270;2023-03-04T10:21:00;99959.13;;;4.49;100.00
51928;BME280;37953;52.806;18.270;2023-03-04T10:23:28;99959.13;;;4.51;100.00
51928;BME280;37953;52.806;18.270;2023-03-04T10:25:56;99952.28;;;4.49;100.00
51928;BME280;37953;52.806;18.270;2023-03-04T10:28:25;99956.56;;;4.51;100.00
51928;BME280;37953;52.806;18.270;2023-03-04T10:33:43;99954.84;;;4.49;100.00
51928;BME280;37953;52.806;18.270;2023-03-04T10:38:38;99965.94;;;4.48;100.00
51928;BME280;37953;52.806;18.270;2023-03-04T10:41:13;99956.50;;;4.47;100.00
51928;BME280;37953;52.806;18.270;2023-03-04T10:43:43;99947.06;;;4.46;100.00
51928;BME280;37953;52.806;18.270;2023-03-04T10:46:14;99959.09;;;4.47;100.00
51928;BME280;37953;52.806;18.270;2023-03-04T10:48:41;99958.22;;;4.47;100.00
51928;BME280;37953;52.806;18.270;2023-03-04T10:51:21;99983.94;;;4.47;100.00
51928;BME280;37953;52.806;18.270;2023-03-04T10:53:49;99991.63;;;4.45;100.00
51928;BME280;37953;52.806;18.270;2023-03-04T11:01:44;99984.19;;;4.17;100.00
51928;BME280;37953;52.806;18.270;2023-03-04T11:04:22;99983.19;;;4.10;100.00
51928;BME280;37953;52.806;18.270;2023-03-04T11:06:56;99970.16;;;4.01;100.00
51928;BME280;37953;52.806;18.270;2023-03-04T11:09:23;99980.34;;;3.96;100.00
51928;BME280;37953;52.806;18.270;2023-03-04T11:12:11;99970.78;;;3.91;100.00
51928;BME280;37953;52.806;18.270;2023-03-04T11:14:44;99973.31;;;3.89;100.00
51928;BME280;37953;52.806;18.270;2023-03-04T11:17:18;99975.03;;;3.88;100.00
51928;BME280;37953;52.806;18.270;2023-03-04T11:22:30;99965.66;;;3.91;100.00
51928;BME280;37953;52.806;18.270;2023-03-04T11:27:43;99967.41;;;3.93;100.00
51928;BME280;37953;52.806;18.270;2023-03-04T11:30:28;99969.16;;;3.96;100.00
51928;BME280;37953;52.806;18.270;2023-03-04T11:33:16;99975.25;;;3.99;100.00
51928;BME280;37953;52.806;18.270;2023-03-04T11:35:58;99973.63;;;4.03;100.00
51928;BME280;37953;52.806;18.270;2023-03-04T11:38:31;99970.25;;;4.05;100.00
51928;BME280;37953;52.806;18.270;2023-03-04T11:41:00;99969.47;;;4.10;100.00
51928;BME280;37953;52.806;18.270;2023-03-04T11:43:33;99967.81;;;4.12;100.00
51928;BME280;37953;52.806;18.270;2023-03-04T11:46:08;99973.03;;;4.16;100.00
51928;BME280;37953;52.806;18.270;2023-03-04T11:51:15;99974.91;;;4.25;100.00
51928;BME280;37953;52.806;18.270;2023-03-04T12:14:39;99985.38;;;4.77;100.00
51928;BME280;37953;52.806;18.270;2023-03-04T12:22:45;99987.22;;;4.85;100.00
51928;BME280;37953;52.806;18.270;2023-03-04T12:35:01;99992.59;;;4.98;100.00
51928;BME280;37953;52.806;18.270;2023-03-04T12:37:38;99994.38;;;5.00;100.00
51928;BME280;37953;52.806;18.270;2023-03-04T12:43:10;99998.84;;;5.10;100.00
51928;BME280;37953;52.806;18.270;2023-03-04T12:48:34;100006.66;;;5.18;100.00
51928;BME280;37953;52.806;18.270;2023-03-04T12:55:54;100019.66;;;5.24;100.00
51928;BME280;37953;52.806;18.270;2023-03-04T12:58:23;100013.69;;;5.25;100.00
51928;BME280;37953;52.806;18.270;2023-03-04T13:03:28;100015.41;;;5.26;100.00
51928;BME280;37953;52.806;18.270;2023-03-04T13:08:47;100019.94;;;5.41;100.00
51928;BME280;37953;52.806;18.270;2023-03-04T13:14:21;100019.31;;;5.56;100.00
51928;BME280;37953;52.806;18.270;2023-03-04T13:16:52;100022.84;;;5.61;100.00
51928;BME280;37953;52.806;18.270;2023-03-04T13:22:24;100020.44;;;5.72;100.00
51928;BME280;37953;52.806;18.270;2023-03-04T13:24:49;100023.06;;;5.77;97.37
51928;BME280;37953;52.806;18.270;2023-03-04T13:30:25;100030.84;;;5.80;92.24
51928;BME280;37953;52.806;18.270;2023-03-04T13:32:51;100030.91;;;5.83;90.39
51928;BME280;37953;52.806;18.270;2023-03-04T13:38:01;100025.78;;;5.84;83.79
51928;BME280;37953;52.806;18.270;2023-03-04T13:41:45;100030.94;;;5.84;79.17
51928;BME280;37953;52.806;18.270;2023-03-04T13:43:37;100031.75;;;5.83;75.37
51928;BME280;37953;52.806;18.270;2023-03-04T14:01:58;100020.38;;;5.69;68.93
51928;BME280;37953;52.806;18.270;2023-03-04T14:04:26;100021.19;;;5.66;68.11
51928;BME280;37953;52.806;18.270;2023-03-04T14:06:54;100023.78;;;5.66;67.29
51928;BME280;37953;52.806;18.270;2023-03-04T14:09:26;100016.00;;;5.63;68.51
51928;BME280;37953;52.806;18.270;2023-03-04T14:11:53;100019.47;;;5.65;69.63
51928;BME280;37953;52.806;18.270;2023-03-04T14:14:27;100016.88;;;5.64;71.16
51928;BME280;37953;52.806;18.270;2023-03-04T14:17:01;100022.00;;;5.62;69.97
51928;BME280;37953;52.806;18.270;2023-03-04T14:19:29;100022.00;;;5.62;69.38
51928;BME280;37953;52.806;18.270;2023-03-04T14:21:56;100025.41;;;5.60;69.64
51928;BME280;37953;52.806;18.270;2023-03-04T14:24:22;100028.78;;;5.57;66.37
51928;BME280;37953;52.806;18.270;2023-03-04T14:26:49;100033.06;;;5.55;66.95
51928;BME280;37953;52.806;18.270;2023-03-04T14:29:25;100025.28;;;5.54;68.05
51928;BME280;37953;52.806;18.270;2023-03-04T14:31:52;100032.16;;;5.53;69.80
51928;BME280;37953;52.806;18.270;2023-03-04T14:34:36;100027.84;;;5.52;70.55
51928;BME280;37953;52.806;18.270;2023-03-04T14:37:15;100027.81;;;5.49;69.73
51928;BME280;37953;52.806;18.270;2023-03-04T14:39:44;100035.50;;;5.47;67.67
51928;BME280;37953;52.806;18.270;2023-03-04T14:42:11;100026.00;;;5.45;66.78